createdAt,value
2022-09-26T00:01:48.153Z,99254.69
2022-09-26T00:04:25.236Z,99254.28
2022-09-26T00:06:58.739Z,99251.75
2022-09-26T00:09:30.110Z,99247.91
2022-09-26T00:12:00.956Z,99250.53
2022-09-26T00:14:30.871Z,99241.78
2022-09-26T00:17:01.742Z,99243.94
2022-09-26T00:19:31.317Z,99225.47
2022-09-26T00:22:01.328Z,99234.53
2022-09-26T00:24:30.138Z,99217.84
2022-09-26T00:27:01.187Z,99222.97
2022-09-26T00:29:37.013Z,99222.03
2022-09-26T00:32:06.893Z,99210.91
2022-09-26T00:34:38.539Z,99215.78
2022-09-26T00:37:08.677Z,99210.84
2022-09-26T00:39:37.011Z,99203.66
2022-09-26T00:42:08.357Z,99220.63
2022-09-26T00:44:54.776Z,99220.63
2022-09-26T00:47:50.965Z,99211.03
2022-09-26T00:50:32.531Z,99203.81
2022-09-26T00:53:24.999Z,99202.38
2022-09-26T00:56:07.587Z,99208.13
2022-09-26T00:58:58.424Z,99195.13
2022-09-26T01:01:30.599Z,99207.34
2022-09-26T01:04:03.270Z,99198.88
2022-09-26T01:06:31.825Z,99192.81
2022-09-26T01:09:09.548Z,99193.34
2022-09-26T01:11:43.867Z,99188.16
2022-09-26T01:14:14.737Z,99196.84
2022-09-26T01:16:49.423Z,99183.44
2022-09-26T01:19:53.612Z,99182.94
2022-09-26T01:23:06.544Z,99176.03
2022-09-26T01:26:19.568Z,99177.34
2022-09-26T01:29:18.104Z,99179.53
2022-09-26T01:32:15.367Z,99186.06
2022-09-26T01:35:12.288Z,99156.00
2022-09-26T01:38:06.883Z,99174.69
2022-09-26T01:41:16.317Z,99166.84
2022-09-26T01:44:29.990Z,99163.03
2022-09-26T01:47:44.323Z,99154.47
2022-09-26T01:51:16.815Z,99156.13
2022-09-26T01:53:54.809Z,99146.31
2022-09-26T01:56:31.070Z,99142.44
2022-09-26T01:59:10.655Z,99137.72
2022-09-26T02:01:45.796Z,99140.41
2022-09-26T02:04:20.754Z,99125.06
2022-09-26T02:07:11.663Z,99123.75
2022-09-26T02:09:46.519Z,99128.66
2022-09-26T02:12:34.512Z,99130.78
2022-09-26T02:15:09.460Z,99138.44
2022-09-26T02:17:50.282Z,99144.06
2022-09-26T02:20:35.316Z,99127.09
2022-09-26T02:23:09.278Z,99141.00
2022-09-26T02:25:45.095Z,99141.16
2022-09-26T02:28:14.399Z,99130.91
2022-09-26T02:30:48.817Z,99132.50
2022-09-26T02:33:18.884Z,99134.06
2022-09-26T02:35:58.963Z,99129.94
2022-09-26T02:38:34.825Z,99114.13
2022-09-26T02:41:37.759Z,99108.69
2022-09-26T02:44:43.531Z,99117.72
2022-09-26T02:47:46.243Z,99098.38
2022-09-26T02:51:05.757Z,99122.13
2022-09-26T02:53:36.948Z,99110.78
2022-09-26T02:56:31.354Z,99100.66
2022-09-26T02:59:17.771Z,99102.53
2022-09-26T03:02:01.740Z,99105.78
2022-09-26T03:04:55.679Z,99106.34
2022-09-26T03:07:35.705Z,99104.53
2022-09-26T03:10:07.654Z,99091.66
2022-09-26T03:12:38.493Z,99090.66
2022-09-26T03:15:08.527Z,99093.97
2022-09-26T03:17:41.410Z,99099.41
2022-09-26T03:20:16.302Z,99094.31
2022-09-26T03:22:47.741Z,99096.88
2022-09-26T03:25:27.982Z,99090.59
2022-09-26T03:28:11.264Z,99098.34
2022-09-26T03:30:50.070Z,99076.28
2022-09-26T03:33:28.890Z,99070.03
2022-09-26T03:36:00.518Z,99071.50
2022-09-26T03:38:31.090Z,99073.66
2022-09-26T03:41:11.477Z,99070.63
2022-09-26T03:44:00.091Z,99071.34
2022-09-26T03:46:40.337Z,99073.75
2022-09-26T03:49:12.376Z,99059.78
2022-09-26T03:51:41.260Z,99062.69
2022-09-26T03:54:09.324Z,99066.75
2022-09-26T03:56:38.321Z,99055.84
2022-09-26T03:59:06.132Z,99039.22
2022-09-26T04:01:36.179Z,99046.00
2022-09-26T04:04:04.317Z,99043.75
2022-09-26T04:06:33.349Z,99035.47
2022-09-26T04:09:03.970Z,99008.09
2022-09-26T04:11:35.288Z,99015.91
2022-09-26T04:14:09.178Z,99011.22
2022-09-26T04:16:37.395Z,99000.50
2022-09-26T04:19:37.159Z,99011.66
2022-09-26T04:22:12.936Z,99006.72
2022-09-26T04:24:48.441Z,99004.41
2022-09-26T04:27:18.732Z,99001.97
2022-09-26T04:29:47.409Z,99002.81
2022-09-26T04:32:48.536Z,98980.84
2022-09-26T04:35:41.503Z,99000.63
2022-09-26T04:38:10.031Z,99001.41
2022-09-26T04:40:42.779Z,99007.72
2022-09-26T04:43:16.357Z,99013.84
2022-09-26T04:45:46.310Z,99023.22
2022-09-26T04:48:16.393Z,99017.94
2022-09-26T04:51:15.578Z,99021.09
2022-09-26T04:53:44.728Z,99017.34
2022-09-26T04:56:24.293Z,99001.25
2022-09-26T04:58:59.556Z,99008.69
2022-09-26T05:01:35.427Z,99025.03
2022-09-26T05:04:27.462Z,99020.97
2022-09-26T05:06:59.748Z,99023.97
2022-09-26T05:09:36.230Z,99028.13
2022-09-26T05:12:19.919Z,99024.31
2022-09-26T05:14:54.204Z,99030.41
2022-09-26T05:17:24.670Z,99027.47
2022-09-26T05:20:09.569Z,99030.53
2022-09-26T05:22:58.890Z,99028.16
2022-09-26T05:25:49.673Z,99016.78
2022-09-26T05:28:20.275Z,99027.78
2022-09-26T05:30:51.962Z,99019.66
2022-09-26T05:33:22.363Z,99026.56
2022-09-26T05:35:55.341Z,99020.59
2022-09-26T05:38:28.541Z,99010.81
2022-09-26T05:41:01.388Z,99020.38
2022-09-26T05:43:33.456Z,99019.84
2022-09-26T05:46:32.718Z,99004.13
2022-09-26T05:49:08.438Z,98995.75
2022-09-26T05:51:49.161Z,98999.34
2022-09-26T05:54:21.717Z,99005.47
2022-09-26T05:56:57.215Z,99008.75
2022-09-26T05:59:46.888Z,99005.50
2022-09-26T06:02:26.966Z,98968.97
2022-09-26T06:05:13.803Z,98978.91
2022-09-26T06:08:09.318Z,98980.06
2022-09-26T06:10:45.363Z,98986.41
2022-09-26T06:13:15.529Z,98989.47
2022-09-26T06:15:50.116Z,98974.75
2022-09-26T06:18:18.426Z,98971.81
2022-09-26T06:20:49.605Z,98976.19
2022-09-26T06:23:17.654Z,98983.81
2022-09-26T06:25:48.582Z,98980.81
2022-09-26T06:28:18.672Z,98985.75
2022-09-26T06:30:47.122Z,98978.91
2022-09-26T06:33:33.165Z,98986.06
2022-09-26T06:36:22.848Z,98987.97
2022-09-26T06:38:56.531Z,98981.16
2022-09-26T06:41:26.732Z,98973.22
2022-09-26T06:43:59.469Z,98989.94
2022-09-26T06:46:51.035Z,98969.66
2022-09-26T06:49:32.952Z,98961.19
2022-09-26T06:52:08.920Z,98960.34
2022-09-26T06:54:40.712Z,98966.56
2022-09-26T06:57:14.693Z,98975.63
2022-09-26T06:59:46.510Z,98982.25
2022-09-26T07:02:22.386Z,98987.16
2022-09-26T07:05:06.985Z,98972.41
2022-09-26T07:07:43.356Z,98995.97
2022-09-26T07:10:20.067Z,98991.56
2022-09-26T07:13:05.420Z,98995.94
2022-09-26T07:15:37.311Z,98991.56
2022-09-26T07:18:26.856Z,98995.97
2022-09-26T07:21:05.586Z,98983.38
2022-09-26T07:24:06.162Z,98984.97
2022-09-26T07:26:36.586Z,98990.44
2022-09-26T07:29:12.966Z,98985.28
2022-09-26T07:31:42.598Z,98989.13
2022-09-26T07:34:41.628Z,98990.47
2022-09-26T07:37:19.981Z,98954.34
2022-09-26T07:40:00.695Z,98986.00
2022-09-26T07:42:42.094Z,98988.50
2022-09-26T07:45:28.016Z,98982.75
2022-09-26T07:48:23.779Z,98980.59
2022-09-26T07:51:13.378Z,98983.31
2022-09-26T07:53:56.773Z,98986.06
2022-09-26T07:56:35.936Z,98977.81
2022-09-26T07:59:38.123Z,98974.47
2022-09-26T08:02:40.618Z,98980.50
2022-09-26T08:05:22.981Z,98994.75
2022-09-26T08:08:03.417Z,98988.75
2022-09-26T08:11:06.313Z,99004.09
2022-09-26T08:17:49.360Z,99008.72
2022-09-26T08:20:20.425Z,99013.09
2022-09-26T08:23:01.585Z,99018.31
2022-09-26T08:25:35.315Z,99018.59
2022-09-26T08:28:13.982Z,99019.91
2022-09-26T08:30:46.448Z,99019.44
2022-09-26T08:33:19.831Z,99017.53
2022-09-26T08:35:50.375Z,99020.56
2022-09-26T08:38:44.027Z,99023.69
2022-09-26T08:41:46.091Z,99021.94
2022-09-26T08:45:47.924Z,99031.50
2022-09-26T08:49:54.347Z,99026.81
2022-09-26T08:52:45.657Z,99008.06
2022-09-26T08:55:20.437Z,99005.03
2022-09-26T08:58:10.687Z,99001.97
2022-09-26T09:00:45.575Z,98980.91
2022-09-26T09:06:28.458Z,98987.41
2022-09-26T09:09:15.243Z,98998.94
2022-09-26T09:12:34.849Z,98994.69
2022-09-26T09:15:46.218Z,98993.59
2022-09-26T09:18:47.789Z,98992.47
2022-09-26T09:22:16.135Z,98990.28
2022-09-26T09:25:24.784Z,98984.75
2022-09-26T09:28:17.757Z,98984.53
2022-09-26T09:30:56.061Z,98983.63
2022-09-26T09:33:53.836Z,98984.81
2022-09-26T09:36:54.960Z,98995.72
2022-09-26T09:39:47.861Z,98977.25
2022-09-26T09:42:47.547Z,98972.19
2022-09-26T09:45:23.285Z,98972.38
2022-09-26T09:47:53.865Z,98976.00
2022-09-26T09:50:41.613Z,98965.34
2022-09-26T09:53:27.957Z,98971.19
2022-09-26T09:56:24.584Z,98968.31
2022-09-26T09:59:11.359Z,98964.41
2022-09-26T10:02:31.405Z,98963.16
2022-09-26T10:05:26.274Z,98965.66
2022-09-26T10:07:58.103Z,98989.72
2022-09-26T10:11:30.141Z,98987.09
2022-09-26T10:14:39.844Z,98988.34
2022-09-26T10:17:39.688Z,98986.13
2022-09-26T10:20:35.293Z,98985.47
2022-09-26T10:23:09.547Z,98982.72
2022-09-26T10:25:46.690Z,98977.69
2022-09-26T10:28:45.007Z,98965.41
2022-09-26T10:31:31.278Z,98970.53
2022-09-26T10:34:41.696Z,98971.31
2022-09-26T10:37:26.340Z,98962.44
2022-09-26T10:40:56.031Z,98955.41
2022-09-26T10:43:38.351Z,98930.84
2022-09-26T10:46:20.347Z,98958.78
2022-09-26T10:49:02.667Z,98960.56
2022-09-26T10:51:55.734Z,98962.63
2022-09-26T10:54:33.413Z,98957.94
2022-09-26T10:57:05.321Z,98961.00
2022-09-26T10:59:43.698Z,98960.81
2022-09-26T11:02:22.177Z,98956.03
2022-09-26T11:05:27.809Z,98962.56
2022-09-26T11:08:10.831Z,98953.75
2022-09-26T11:11:18.781Z,98956.19
2022-09-26T11:14:09.640Z,98954.69
2022-09-26T11:16:59.440Z,98950.59
2022-09-26T11:20:14.505Z,98947.44
2022-09-26T11:22:50.035Z,98920.44
2022-09-26T11:25:58.143Z,98943.53
2022-09-26T11:29:06.371Z,98938.00
2022-09-26T11:32:08.652Z,98922.00
2022-09-26T11:35:33.479Z,98914.19
2022-09-26T11:38:41.237Z,98915.75
2022-09-26T11:41:40.409Z,98903.94
2022-09-26T11:44:27.884Z,98904.88
2022-09-26T11:47:30.439Z,98911.41
2022-09-26T11:50:40.120Z,98908.91
2022-09-26T11:53:46.183Z,98899.53
2022-09-26T11:56:37.022Z,98900.06
2022-09-26T11:59:29.582Z,98903.66
2022-09-26T12:02:33.138Z,98898.13
2022-09-26T12:05:52.563Z,98899.94
2022-09-26T12:08:58.133Z,98883.03
2022-09-26T12:11:59.590Z,98887.19
2022-09-26T12:15:06.504Z,98889.19
2022-09-26T12:17:50.467Z,98887.03
2022-09-26T12:20:32.474Z,98880.56
2022-09-26T12:23:16.727Z,98869.41
2022-09-26T12:26:35.407Z,98864.53
2022-09-26T12:29:33.795Z,98859.50
2022-09-26T12:32:19.624Z,98851.50
2022-09-26T12:35:08.333Z,98864.06
2022-09-26T12:38:07.265Z,98862.34
2022-09-26T12:41:05.225Z,98862.19
2022-09-26T12:44:38.607Z,98869.78
2022-09-26T12:47:26.239Z,98865.63
2022-09-26T12:50:06.397Z,98861.31
2022-09-26T12:52:53.453Z,98848.22
2022-09-26T12:55:53.737Z,98853.59
2022-09-26T12:59:13.180Z,98851.50
2022-09-26T13:02:03.768Z,98856.16
2022-09-26T13:04:57.405Z,98858.69
2022-09-26T13:08:40.440Z,98855.47
2022-09-26T13:11:32.923Z,98847.44
2022-09-26T13:17:34.672Z,98851.66
2022-09-26T13:20:32.661Z,98837.97
2022-09-26T13:23:41.248Z,98818.84
2022-09-26T13:26:28.460Z,98820.44
2022-09-26T13:29:23.648Z,98814.75
2022-09-26T13:32:25.877Z,98811.75
2022-09-26T13:35:22.484Z,98815.69
2022-09-26T13:38:08.462Z,98811.25
2022-09-26T13:41:01.558Z,98820.00
2022-09-26T13:44:06.047Z,98810.25
2022-09-26T13:47:03.018Z,98804.72
2022-09-26T13:49:52.327Z,98806.44
2022-09-26T13:53:14.362Z,98810.34
2022-09-26T13:55:46.590Z,98794.47
2022-09-26T13:58:28.103Z,98789.28
2022-09-26T14:01:33.773Z,98794.78
2022-09-26T14:04:34.512Z,98789.13
2022-09-26T14:07:43.236Z,98796.34
2022-09-26T14:10:46.738Z,98789.50
2022-09-26T14:13:45.250Z,98787.66
2022-09-26T14:16:36.624Z,98795.38
2022-09-26T14:19:35.778Z,98796.00
2022-09-26T14:22:28.390Z,98811.44
2022-09-26T14:24:59.440Z,98806.59
2022-09-26T14:27:44.587Z,98801.28
2022-09-26T14:30:39.657Z,98798.22
2022-09-26T14:33:17.759Z,98808.13
2022-09-26T14:35:49.823Z,98816.66
2022-09-26T14:38:24.909Z,98830.34
2022-09-26T14:41:03.419Z,98815.06
2022-09-26T14:43:45.322Z,98781.44
2022-09-26T14:46:30.990Z,98768.06
2022-09-26T14:49:06.119Z,98764.00
2022-09-26T14:51:45.491Z,98778.47
2022-09-26T14:54:27.015Z,98764.28
2022-09-26T14:57:05.678Z,98766.72
2022-09-26T14:59:43.548Z,98766.72
2022-09-26T15:02:26.222Z,98773.28
2022-09-26T15:05:22.301Z,98781.78
2022-09-26T15:08:01.317Z,98771.41
2022-09-26T15:10:42.968Z,98758.00
2022-09-26T15:13:43.575Z,98743.81
2022-09-26T15:16:32.600Z,98749.56
2022-09-26T15:19:16.014Z,98745.47
2022-09-26T15:22:12.720Z,98739.44
2022-09-26T15:24:44.463Z,98737.84
2022-09-26T15:27:29.865Z,98735.66
2022-09-26T15:30:30.331Z,98742.47
2022-09-26T15:33:06.936Z,98710.75
2022-09-26T15:35:36.698Z,98732.88
2022-09-26T15:38:13.772Z,98721.69
2022-09-26T15:40:44.957Z,98723.66
2022-09-26T15:43:23.386Z,98719.28
2022-09-26T15:46:09.747Z,98713.22
2022-09-26T15:48:45.461Z,98717.03
2022-09-26T15:51:28.177Z,98715.69
2022-09-26T15:54:02.179Z,98712.66
2022-09-26T15:56:43.840Z,98707.19
2022-09-26T15:59:21.403Z,98717.28
2022-09-26T16:01:50.638Z,98730.66
2022-09-26T16:04:22.684Z,98743.75
2022-09-26T16:07:03.576Z,98770.50
2022-09-26T16:09:34.523Z,98745.97
2022-09-26T16:12:30.338Z,98732.81
2022-09-26T16:15:04.274Z,98702.72
2022-09-26T16:17:37.635Z,98678.41
2022-09-26T16:20:11.646Z,98666.41
2022-09-26T16:22:53.543Z,98684.09
2022-09-26T16:25:25.962Z,98694.22
2022-09-26T16:28:19.175Z,98702.19
2022-09-26T16:31:20.435Z,98739.88
2022-09-26T16:33:54.468Z,98774.28
2022-09-26T16:36:30.538Z,98828.78
2022-09-26T16:39:07.412Z,98809.41
2022-09-26T16:42:03.869Z,98794.16
2022-09-26T16:44:36.267Z,98777.75
2022-09-26T16:47:47.927Z,98749.63
2022-09-26T16:50:29.276Z,98742.00
2022-09-26T16:52:59.207Z,98743.16
2022-09-26T16:55:28.112Z,98748.63
2022-09-26T16:58:02.281Z,98743.97
2022-09-26T17:00:55.616Z,98754.56
2022-09-26T17:03:27.764Z,98758.41
2022-09-26T17:05:58.924Z,98756.50
2022-09-26T17:08:28.928Z,98759.00
2022-09-26T17:11:01.473Z,98761.13
2022-09-26T17:13:36.028Z,98749.09
2022-09-26T17:16:05.597Z,98744.47
2022-09-26T17:18:35.246Z,98753.22
2022-09-26T17:21:04.741Z,98751.03
2022-09-26T17:23:41.536Z,98757.84
2022-09-26T17:26:20.214Z,98773.09
2022-09-26T17:28:54.055Z,98769.31
2022-09-26T17:31:23.333Z,98770.97
2022-09-26T17:33:53.545Z,98793.66
2022-09-26T17:36:24.043Z,98804.56
2022-09-26T17:38:53.638Z,98793.63
2022-09-26T17:41:30.174Z,98801.81
2022-09-26T17:44:01.873Z,98786.72
2022-09-26T17:46:31.193Z,98775.22
2022-09-26T17:49:00.661Z,98760.97
2022-09-26T17:51:31.380Z,98760.97
2022-09-26T17:54:02.327Z,98769.41
2022-09-26T17:56:31.212Z,98760.13
2022-09-26T17:59:00.324Z,98783.16
2022-09-26T18:01:34.390Z,98801.69
2022-09-26T18:04:07.359Z,98811.22
2022-09-26T18:06:37.184Z,98803.31
2022-09-26T18:09:10.442Z,98801.94
2022-09-26T18:11:42.103Z,98794.22
2022-09-26T18:14:17.679Z,98806.91
2022-09-26T18:16:46.849Z,98818.94
2022-09-26T18:19:17.431Z,98823.31
2022-09-26T18:21:54.673Z,98839.91
2022-09-26T18:24:27.548Z,98845.06
2022-09-26T18:27:03.755Z,98859.50
2022-09-26T18:29:35.985Z,98851.91
2022-09-26T18:32:12.480Z,98842.84
2022-09-26T18:34:47.070Z,98829.09
2022-09-26T18:37:15.669Z,98808.34
2022-09-26T18:39:49.687Z,98790.34
2022-09-26T18:42:25.299Z,98797.41
2022-09-26T18:45:05.495Z,98776.53
2022-09-26T18:47:45.869Z,98786.78
2022-09-26T18:50:24.684Z,98783.19
2022-09-26T18:52:54.442Z,98801.22
2022-09-26T18:55:43.532Z,98801.84
2022-09-26T18:58:26.531Z,98809.25
2022-09-26T19:01:08.185Z,98805.47
2022-09-26T19:03:45.938Z,98800.63
2022-09-26T19:06:42.492Z,98783.13
2022-09-26T19:09:19.904Z,98769.16
2022-09-26T19:11:49.699Z,98750.31
2022-09-26T19:14:27.872Z,98735.53
2022-09-26T19:17:00.528Z,98752.44
2022-09-26T19:19:32.947Z,98747.53
2022-09-26T19:22:15.696Z,98737.03
2022-09-26T19:24:57.274Z,98738.69
2022-09-26T19:27:27.487Z,98753.69
2022-09-26T19:30:01.168Z,98748.03
2022-09-26T19:32:45.001Z,98748.13
2022-09-26T19:35:28.474Z,98745.34
2022-09-26T19:38:02.285Z,98723.53
2022-09-26T19:40:31.511Z,98731.19
2022-09-26T19:42:59.828Z,98734.53
2022-09-26T19:45:32.056Z,98731.19
2022-09-26T19:48:00.325Z,98741.78
2022-09-26T19:51:18.818Z,98736.03
2022-09-26T19:53:47.159Z,98730.53
2022-09-26T19:56:18.054Z,98726.09
2022-09-26T19:58:47.028Z,98747.97
2022-09-26T20:01:20.726Z,98743.00
2022-09-26T20:03:50.545Z,98747.63
2022-09-26T20:06:25.787Z,98750.88
2022-09-26T20:09:01.766Z,98759.84
2022-09-26T20:11:30.191Z,98752.81
2022-09-26T20:14:18.072Z,98754.97
2022-09-26T20:16:51.266Z,98753.63
2022-09-26T20:19:35.404Z,98747.06
2022-09-26T20:22:05.832Z,98721.72
2022-09-26T20:24:40.207Z,98721.72
2022-09-26T20:27:17.895Z,98744.94
2022-09-26T20:30:32.605Z,98750.06
2022-09-26T20:33:06.170Z,98752.81
2022-09-26T20:35:40.137Z,98757.44
2022-09-26T20:38:19.557Z,98770.25
2022-09-26T20:40:51.728Z,98774.34
2022-09-26T20:43:30.380Z,98760.97
2022-09-26T20:45:59.162Z,98759.63
2022-09-26T20:48:28.755Z,98756.41
2022-09-26T20:50:58.579Z,98748.25
2022-09-26T20:53:30.020Z,98749.63
2022-09-26T20:55:58.222Z,98744.75
2022-09-26T20:58:27.643Z,98743.13
2022-09-26T21:00:56.901Z,98752.38
2022-09-26T21:03:52.022Z,98750.75
2022-09-26T21:06:30.007Z,98754.06
2022-09-26T21:08:57.736Z,98738.47
2022-09-26T21:11:29.521Z,98756.56
2022-09-26T21:14:01.967Z,98755.47
2022-09-26T21:16:31.677Z,98758.47
2022-09-26T21:19:05.570Z,98755.22
2022-09-26T21:21:35.847Z,98737.81
2022-09-26T21:24:25.338Z,98735.66
2022-09-26T21:26:57.283Z,98725.81
2022-09-26T21:29:28.051Z,98728.28
2022-09-26T21:32:02.980Z,98723.31
2022-09-26T21:34:37.541Z,98715.47
2022-09-26T21:37:10.574Z,98703.50
2022-09-26T21:39:39.269Z,98700.75
2022-09-26T21:42:07.696Z,98699.13
2022-09-26T21:44:52.546Z,98694.50
2022-09-26T21:47:22.480Z,98696.66
2022-09-26T21:49:50.305Z,98695.84
2022-09-26T21:52:35.210Z,98701.59
2022-09-26T21:55:07.549Z,98699.19
2022-09-26T21:57:43.280Z,98700.50
2022-09-26T22:00:15.547Z,98695.84
2022-09-26T22:02:52.650Z,98697.50
2022-09-26T22:05:23.925Z,98703.50
2022-09-26T22:07:52.103Z,98683.53
2022-09-26T22:10:20.734Z,98684.34
2022-09-26T22:12:56.925Z,98685.13
2022-09-26T22:15:25.612Z,98681.28
2022-09-26T22:17:55.537Z,98679.84
2022-09-26T22:20:26.984Z,98672.47
2022-09-26T22:25:52.285Z,98664.84
2022-09-26T22:28:39.838Z,98649.84
2022-09-26T22:31:10.325Z,98648.75
2022-09-26T22:33:41.493Z,98640.31
2022-09-26T22:36:09.781Z,98646.59
2022-09-26T22:38:41.882Z,98639.19
2022-09-26T22:41:18.805Z,98637.31
2022-09-26T22:43:49.950Z,98641.13
2022-09-26T22:46:22.621Z,98641.94
2022-09-26T22:48:53.891Z,98642.22
2022-09-26T22:51:31.478Z,98643.25
2022-09-26T22:54:02.030Z,98650.59
2022-09-26T22:56:34.781Z,98650.84
2022-09-26T22:59:03.443Z,98652.16
2022-09-26T23:01:33.548Z,98644.28
2022-09-26T23:04:06.998Z,98653.56
2022-09-26T23:06:35.419Z,98648.91
2022-09-26T23:09:07.471Z,98640.97
2022-09-26T23:11:36.443Z,98641.84
2022-09-26T23:14:07.068Z,98644.81
2022-09-26T23:16:36.033Z,98645.66
2022-09-26T23:19:09.106Z,98642.09
2022-09-26T23:21:40.360Z,98649.72
2022-09-26T23:24:12.450Z,98636.63
2022-09-26T23:26:50.894Z,98633.31
2022-09-26T23:29:20.370Z,98635.78
2022-09-26T23:31:51.373Z,98616.94
2022-09-26T23:34:20.172Z,98608.81
2022-09-26T23:36:48.646Z,98605.59
2022-09-26T23:39:17.043Z,98592.81
2022-09-26T23:41:47.822Z,98596.28
2022-09-26T23:44:18.480Z,98599.06
2022-09-26T23:46:51.698Z,98590.34
2022-09-26T23:49:21.766Z,98581.34
2022-09-26T23:51:52.443Z,98582.41
2022-09-26T23:54:20.013Z,98582.19
2022-09-26T23:56:48.344Z,98586.03
2022-09-26T23:59:19.982Z,98595.84
